Time;durP1;ratioP1;P1;durP2;ratioP2;P2;SDS_P1;SDS_P2;PMS_P1;PMS_P2;Temp;Humidity;BMP_temperature;BMP_pressure;BME280_temperature;BME280_humidity;BME280_pressure;Samples;Min_cycle;Max_cycle;Signal;HPM_P1;HPM_P2
2022/05/10 00:00:53;;;;;;;7.47;5.13;;;;;;;;;;5023439;28;20634;-64
2022/05/10 00:03:20;;;;;;;10.75;6.18;;;;;;;;;;5020951;28;20028;-65
2022/05/10 00:05:46;;;;;;;8.70;6.07;;;;;;;;;;5020816;28;20021;-64
2022/05/10 00:08:12;;;;;;;9.32;6.07;;;;;;;;;;5020780;28;20095;-65
2022/05/10 00:10:41;;;;;;;11.82;6.30;;;;;;;;;;5018998;28;20432;-66
2022/05/10 00:13:07;;;;;;;12.98;6.43;;;;;;;;;;5019544;28;20049;-64
2022/05/10 00:15:35;;;;;;;11.85;6.50;;;;;;;;;;5020781;28;20515;-66
2022/05/10 00:18:01;;;;;;;15.15;6.93;;;;;;;;;;5020972;28;20026;-66
2022/05/10 00:20:27;;;;;;;10.82;6.95;;;;;;;;;;5003886;28;20089;-65
2022/05/10 00:22:52;;;;;;;8.88;6.20;;;;;;;;;;5023134;28;20463;-65
2022/05/10 00:25:24;;;;;;;9.98;7.18;;;;;;;;;;5019963;28;21418;-65
2022/05/10 00:27:49;;;;;;;9.82;7.05;;;;;;;;;;5018675;28;20326;-65
2022/05/10 00:30:14;;;;;;;10.15;7.03;;;;;;;;;;5023135;28;20392;-66
2022/05/10 00:32:40;;;;;;;12.07;6.75;;;;;;;;;;5021919;28;20629;-65
2022/05/10 00:35:06;;;;;;;10.13;6.63;;;;;;;;;;5023837;28;20018;-65
2022/05/10 00:37:32;;;;;;;11.82;7.00;;;;;;;;;;5020492;28;20146;-65
2022/05/10 00:39:57;;;;;;;12.18;7.55;;;;;;;;;;5023021;28;20431;-66
2022/05/10 00:42:27;;;;;;;11.15;6.70;;;;;;;;;;5022879;28;20013;-65
2022/05/10 00:45:01;;;;;;;10.45;6.50;;;;;;;;;;5025817;28;20053;-64
2022/05/10 00:47:49;;;;;;;9.05;6.40;;;;;;;;;;5024682;28;20022;-65
2022/05/10 00:50:28;;;;;;;11.20;6.90;;;;;;;;;;5026278;28;20029;-65
2022/05/10 00:53:05;;;;;;;10.50;6.10;;;;;;;;;;5027117;28;20115;-65
2022/05/10 00:55:36;;;;;;;12.27;7.03;;;;;;;;;;5023134;28;20021;-65
2022/05/10 00:58:11;;;;;;;10.55;6.07;;;;;;;;;;5006640;28;20031;-65
2022/05/10 01:00:37;;;;;;;8.60;6.22;;;;;;;;;;5025279;28;20181;-65
2022/05/10 01:03:05;;;;;;;12.60;6.57;;;;;;;;;;5025792;28;20026;-65
2022/05/10 01:05:31;;;;;;;13.55;6.63;;;;;;;;;;5024521;28;20022;-65
2022/05/10 01:08:13;;;;;;;13.27;6.82;;;;;;;;;;5025747;28;20035;-65
2022/05/10 01:10:42;;;;;;;9.95;5.90;;;;;;;;;;5023375;28;20033;-66
2022/05/10 01:13:27;;;;;;;10.93;7.25;;;;;;;;;;5022822;28;20022;-65
2022/05/10 01:16:11;;;;;;;9.43;5.80;;;;;;;;;;5025124;28;20072;-66
2022/05/10 01:18:38;;;;;;;11.38;6.60;;;;;;;;;;5023970;28;20020;-66
2022/05/10 01:21:32;;;;;;;10.38;6.30;;;;;;;;;;5024058;28;20036;-65
2022/05/10 01:24:21;;;;;;;10.13;6.82;;;;;;;;;;5023721;28;20037;-65
2022/05/10 01:27:04;;;;;;;9.73;5.72;;;;;;;;;;5018488;28;20018;-65
2022/05/10 01:29:53;;;;;;;10.27;5.82;;;;;;;;;;5022580;28;20120;-65
2022/05/10 01:35:07;;;;;;;8.75;6.35;;;;;;;;;;5025988;28;20091;-66
2022/05/10 01:37:35;;;;;;;16.52;7.95;;;;;;;;;;5023358;28;20028;-65
2022/05/10 01:40:04;;;;;;;9.70;6.53;;;;;;;;;;5023568;28;20021;-65
2022/05/10 01:42:36;;;;;;;10.43;6.72;;;;;;;;;;5017021;28;20044;-65
2022/05/10 01:45:06;;;;;;;10.95;7.13;;;;;;;;;;5024969;28;20064;-65
2022/05/10 01:47:35;;;;;;;12.10;6.47;;;;;;;;;;5022820;28;20051;-65
2022/05/10 01:50:10;;;;;;;10.38;6.35;;;;;;;;;;5024750;28;20041;-65
2022/05/10 01:52:41;;;;;;;12.02;6.65;;;;;;;;;;5022504;28;20083;-65
2022/05/10 01:55:26;;;;;;;11.05;7.40;;;;;;;;;;5022331;28;20029;-66
2022/05/10 01:57:53;;;;;;;12.20;6.95;;;;;;;;;;5016732;28;20029;-65
2022/05/10 02:00:20;;;;;;;13.55;6.65;;;;;;;;;;5026259;28;20539;-66
2022/05/10 02:02:57;;;;;;;10.95;6.82;;;;;;;;;;5022388;28;20021;-65
2022/05/10 02:05:28;;;;;;;11.85;6.97;;;;;;;;;;5023342;28;20017;-65
2022/05/10 02:07:56;;;;;;;12.50;7.28;;;;;;;;;;5022888;28;20037;-66
2022/05/10 02:10:37;;;;;;;14.05;7.40;;;;;;;;;;5023163;28;20025;-65
2022/05/10 02:13:07;;;;;;;12.88;7.15;;;;;;;;;;5020612;28;20451;-65
2022/05/10 02:15:38;;;;;;;14.60;7.75;;;;;;;;;;5022980;28;20097;-65
2022/05/10 02:18:23;;;;;;;10.93;7.78;;;;;;;;;;5023529;28;20526;-66
2022/05/10 02:20:52;;;;;;;12.35;7.82;;;;;;;;;;5022751;28;20568;-65
2022/05/10 02:23:28;;;;;;;16.13;8.57;;;;;;;;;;5023615;28;20093;-66
2022/05/10 02:26:01;;;;;;;14.90;8.15;;;;;;;;;;5020012;28;20426;-67
2022/05/10 02:28:32;;;;;;;15.60;8.33;;;;;;;;;;5024859;28;20014;-66
2022/05/10 02:31:00;;;;;;;13.18;9.00;;;;;;;;;;5023366;28;20359;-65
2022/05/10 02:33:26;;;;;;;12.30;8.55;;;;;;;;;;5026555;28;20029;-65
2022/05/10 02:35:55;;;;;;;12.55;8.48;;;;;;;;;;5023645;28;20052;-65
2022/05/10 02:38:22;;;;;;;11.48;9.05;;;;;;;;;;5022085;28;20031;-65
2022/05/10 02:40:47;;;;;;;12.05;9.07;;;;;;;;;;5021241;28;20538;-65
2022/05/10 02:43:15;;;;;;;12.10;8.45;;;;;;;;;;5022853;28;20408;-66
2022/05/10 02:45:42;;;;;;;11.52;9.43;;;;;;;;;;5022997;28;20044;-66
2022/05/10 02:48:28;;;;;;;14.07;9.25;;;;;;;;;;5024582;28;20429;-65
2022/05/10 02:50:53;;;;;;;12.48;8.88;;;;;;;;;;5026755;28;20052;-64
2022/05/10 02:53:19;;;;;;;16.70;9.68;;;;;;;;;;5019774;28;20029;-66
2022/05/10 02:56:01;;;;;;;14.68;9.13;;;;;;;;;;5019792;28;20148;-64
2022/05/10 02:58:30;;;;;;;14.50;9.35;;;;;;;;;;5024020;28;20083;-65
2022/05/10 03:01:14;;;;;;;17.45;10.02;;;;;;;;;;5020993;28;20030;-65
2022/05/10 03:03:40;;;;;;;13.70;9.40;;;;;;;;;;5022172;28;20100;-65
2022/05/10 03:06:05;;;;;;;15.98;8.95;;;;;;;;;;5022116;28;20025;-66
2022/05/10 03:08:32;;;;;;;14.10;8.98;;;;;;;;;;5021048;28;20083;-64
2022/05/10 03:11:00;;;;;;;13.00;9.10;;;;;;;;;;5019244;28;20531;-64
2022/05/10 03:13:25;;;;;;;14.77;9.23;;;;;;;;;;5026250;28;20043;-65
2022/05/10 03:15:51;;;;;;;13.75;9.15;;;;;;;;;;5020721;28;20506;-65
2022/05/10 03:18:17;;;;;;;13.05;8.85;;;;;;;;;;5022402;28;20110;-66
2022/05/10 03:20:42;;;;;;;12.13;9.15;;;;;;;;;;5021040;28;20445;-66
2022/05/10 03:23:08;;;;;;;13.35;9.00;;;;;;;;;;5020082;28;20033;-65
2022/05/10 03:25:34;;;;;;;13.25;9.20;;;;;;;;;;5020975;28;20096;-66
2022/05/10 03:28:00;;;;;;;12.93;8.40;;;;;;;;;;5019424;28;20021;-65
2022/05/10 03:30:26;;;;;;;16.95;10.30;;;;;;;;;;5005789;28;20084;-65
2022/05/10 03:32:53;;;;;;;12.23;9.18;;;;;;;;;;5021412;28;20218;-66
2022/05/10 03:35:18;;;;;;;21.90;10.48;;;;;;;;;;5022446;28;20029;-65
2022/05/10 03:37:43;;;;;;;14.50;8.63;;;;;;;;;;5021913;28;20017;-66
2022/05/10 03:40:09;;;;;;;13.90;9.60;;;;;;;;;;5021351;28;20486;-65
2022/05/10 03:42:40;;;;;;;14.65;9.55;;;;;;;;;;5019490;28;20119;-65
2022/05/10 03:45:06;;;;;;;11.95;8.98;;;;;;;;;;5019257;28;20028;-65
2022/05/10 03:47:31;;;;;;;11.73;8.25;;;;;;;;;;5022106;28;20025;-65
2022/05/10 03:49:56;;;;;;;13.60;9.25;;;;;;;;;;5019760;28;20465;-65
2022/05/10 03:52:22;;;;;;;14.90;8.85;;;;;;;;;;5023677;28;20025;-65
2022/05/10 03:54:47;;;;;;;13.35;8.48;;;;;;;;;;5016839;28;20029;-65
2022/05/10 03:57:12;;;;;;;13.00;9.07;;;;;;;;;;5022763;28;20485;-64
2022/05/10 03:59:41;;;;;;;14.00;8.63;;;;;;;;;;5021081;28;20035;-65
2022/05/10 04:02:07;;;;;;;12.00;8.82;;;;;;;;;;5023065;28;20017;-66
2022/05/10 04:04:32;;;;;;;14.35;9.23;;;;;;;;;;5020373;28;20036;-65
2022/05/10 04:06:58;;;;;;;12.27;8.75;;;;;;;;;;5020057;28;20444;-66
2022/05/10 04:09:23;;;;;;;14.52;8.77;;;;;;;;;;5020169;28;20170;-67
2022/05/10 04:11:48;;;;;;;11.43;9.07;;;;;;;;;;5019624;28;20037;-67
2022/05/10 04:14:13;;;;;;;14.85;8.98;;;;;;;;;;5021737;28;20264;-66
2022/05/10 04:16:39;;;;;;;13.75;9.50;;;;;;;;;;5025311;28;20128;-65
2022/05/10 04:19:04;;;;;;;12.23;8.98;;;;;;;;;;5008627;28;20024;-65
2022/05/10 04:21:30;;;;;;;11.73;9.60;;;;;;;;;;5027740;28;20025;-65
2022/05/10 04:23:55;;;;;;;12.98;9.15;;;;;;;;;;5023734;28;20036;-66
2022/05/10 04:26:20;;;;;;;14.75;10.50;;;;;;;;;;5030977;28;20333;-65
2022/05/10 04:28:46;;;;;;;15.70;10.10;;;;;;;;;;5023531;28;20091;-67
2022/05/10 04:31:12;;;;;;;15.63;10.95;;;;;;;;;;5025713;28;20703;-66
2022/05/10 04:33:38;;;;;;;15.50;10.40;;;;;;;;;;5027204;28;20033;-65
2022/05/10 04:36:04;;;;;;;16.65;10.23;;;;;;;;;;5007123;28;20026;-66
2022/05/10 04:38:31;;;;;;;12.68;10.40;;;;;;;;;;5024969;28;20020;-67
2022/05/10 04:43:45;;;;;;;16.25;9.80;;;;;;;;;;5024209;28;20036;-66
2022/05/10 04:46:10;;;;;;;13.10;9.73;;;;;;;;;;5007135;28;20068;-65
2022/05/10 04:48:35;;;;;;;17.17;11.93;;;;;;;;;;5026880;28;20053;-64
2022/05/10 04:51:01;;;;;;;14.13;11.00;;;;;;;;;;5025577;28;20511;-65
2022/05/10 04:53:27;;;;;;;15.93;10.73;;;;;;;;;;5026010;28;20598;-65
2022/05/10 04:55:54;;;;;;;14.75;9.48;;;;;;;;;;5021517;28;20421;-66
2022/05/10 04:58:20;;;;;;;15.18;10.15;;;;;;;;;;5024934;28;20071;-66
2022/05/10 05:00:46;;;;;;;13.80;10.60;;;;;;;;;;5023950;28;20380;-65
2022/05/10 05:03:12;;;;;;;16.30;10.68;;;;;;;;;;5008801;28;20022;-66
2022/05/10 05:05:37;;;;;;;16.83;10.70;;;;;;;;;;5026703;28;20021;-65
2022/05/10 05:08:07;;;;;;;13.40;9.48;;;;;;;;;;5023339;28;20136;-66
2022/05/10 05:10:34;;;;;;;13.73;9.73;;;;;;;;;;5023755;28;20427;-65
2022/05/10 05:13:00;;;;;;;15.45;10.02;;;;;;;;;;5005134;28;20033;-65
2022/05/10 05:15:25;;;;;;;14.32;10.38;;;;;;;;;;5009010;28;20116;-64
2022/05/10 05:17:50;;;;;;;15.73;10.82;;;;;;;;;;5024504;28;20071;-64
2022/05/10 05:20:16;;;;;;;18.77;10.25;;;;;;;;;;5026157;28;20022;-65
2022/05/10 05:22:41;;;;;;;16.00;10.10;;;;;;;;;;5023924;28;20534;-66
2022/05/10 05:25:06;;;;;;;17.05;9.75;;;;;;;;;;5021763;28;20879;-65
2022/05/10 05:27:32;;;;;;;15.68;9.70;;;;;;;;;;5020340;28;20083;-65
2022/05/10 05:29:58;;;;;;;14.15;10.40;;;;;;;;;;5022388;28;21498;-66
2022/05/10 05:32:27;;;;;;;17.10;10.98;;;;;;;;;;5025050;28;20091;-65
2022/05/10 05:34:52;;;;;;;15.52;10.40;;;;;;;;;;5024922;28;20542;-65
2022/05/10 05:37:33;;;;;;;16.55;10.25;;;;;;;;;;5024006;28;20025;-65
2022/05/10 05:39:58;;;;;;;16.45;10.80;;;;;;;;;;5021240;28;20441;-65
2022/05/10 05:42:24;;;;;;;14.73;9.93;;;;;;;;;;5021542;28;20028;-65
2022/05/10 05:44:50;;;;;;;17.10;10.18;;;;;;;;;;5022726;28;20365;-64
2022/05/10 05:47:15;;;;;;;18.00;10.82;;;;;;;;;;5006047;28;20547;-66
2022/05/10 05:49:40;;;;;;;17.17;10.45;;;;;;;;;;5023019;28;20034;-65
2022/05/10 05:52:06;;;;;;;19.05;10.27;;;;;;;;;;5023305;28;20392;-65
2022/05/10 05:54:32;;;;;;;18.58;10.63;;;;;;;;;;5023340;28;20025;-65
2022/05/10 05:57:01;;;;;;;15.40;10.15;;;;;;;;;;5019648;28;20034;-65
2022/05/10 05:59:26;;;;;;;16.45;10.05;;;;;;;;;;5024450;28;20071;-65
2022/05/10 06:01:52;;;;;;;15.57;10.38;;;;;;;;;;5023029;28;20026;-64
2022/05/10 06:04:18;;;;;;;15.57;9.90;;;;;;;;;;5022744;28;20118;-64
2022/05/10 06:06:43;;;;;;;17.02;11.05;;;;;;;;;;5024111;28;20038;-67
2022/05/10 06:09:08;;;;;;;19.67;11.40;;;;;;;;;;5021085;28;20045;-65
2022/05/10 06:11:33;;;;;;;17.33;9.98;;;;;;;;;;5022343;28;20036;-65
2022/05/10 06:13:59;;;;;;;16.67;11.43;;;;;;;;;;5023179;28;20037;-64
2022/05/10 06:16:24;;;;;;;16.60;10.13;;;;;;;;;;5028191;28;20106;-65
2022/05/10 06:18:49;;;;;;;17.48;10.35;;;;;;;;;;5028372;28;20035;-66
2022/05/10 06:21:15;;;;;;;17.85;10.32;;;;;;;;;;5023006;28;20424;-65
2022/05/10 06:23:40;;;;;;;15.70;9.50;;;;;;;;;;5020351;28;20029;-67
2022/05/10 06:26:05;;;;;;;17.75;10.85;;;;;;;;;;5020914;28;20092;-66
2022/05/10 06:28:30;;;;;;;16.17;9.85;;;;;;;;;;5025762;28;20065;-66
2022/05/10 06:30:56;;;;;;;15.73;10.13;;;;;;;;;;5024086;28;20057;-66
2022/05/10 06:33:22;;;;;;;16.02;9.77;;;;;;;;;;5022827;28;20045;-65
2022/05/10 06:35:48;;;;;;;17.92;9.85;;;;;;;;;;5024771;28;20408;-65
2022/05/10 06:38:16;;;;;;;16.67;9.38;;;;;;;;;;5020100;28;20122;-66
2022/05/10 06:40:42;;;;;;;15.75;9.27;;;;;;;;;;5022219;28;20025;-65
2022/05/10 06:43:07;;;;;;;14.43;8.43;;;;;;;;;;5020012;28;20031;-64
2022/05/10 06:45:33;;;;;;;13.18;7.93;;;;;;;;;;5022904;28;20397;-65
2022/05/10 06:47:59;;;;;;;12.55;8.63;;;;;;;;;;5004185;28;20033;-65
2022/05/10 06:50:25;;;;;;;13.48;8.65;;;;;;;;;;5005850;28;20033;-65
2022/05/10 06:52:51;;;;;;;13.30;8.25;;;;;;;;;;5024040;28;20095;-65
2022/05/10 06:55:16;;;;;;;13.90;8.15;;;;;;;;;;5020062;28;20426;-67
2022/05/10 06:57:42;;;;;;;18.75;8.20;;;;;;;;;;5020527;28;20032;-65
2022/05/10 07:00:08;;;;;;;12.50;6.95;;;;;;;;;;5022243;28;20018;-66
2022/05/10 07:02:34;;;;;;;13.48;7.72;;;;;;;;;;5023209;28;20057;-65
2022/05/10 07:04:59;;;;;;;14.05;8.32;;;;;;;;;;5018620;28;20029;-65
2022/05/10 07:07:25;;;;;;;11.20;7.60;;;;;;;;;;5004164;28;20106;-65
2022/05/10 07:09:52;;;;;;;13.45;7.07;;;;;;;;;;5020894;28;20125;-66
2022/05/10 07:12:17;;;;;;;12.32;7.00;;;;;;;;;;5019404;28;20101;-66
2022/05/10 07:14:45;;;;;;;11.05;6.63;;;;;;;;;;5022012;28;20052;-65
2022/05/10 07:17:10;;;;;;;13.20;6.47;;;;;;;;;;5020411;28;20040;-66
2022/05/10 07:19:35;;;;;;;10.52;6.28;;;;;;;;;;5019841;28;20013;-66
2022/05/10 07:22:01;;;;;;;10.05;6.75;;;;;;;;;;5020640;28;20031;-65
2022/05/10 07:24:26;;;;;;;10.23;6.43;;;;;;;;;;5020040;28;20021;-65
2022/05/10 07:26:52;;;;;;;11.60;5.90;;;;;;;;;;5019181;28;20380;-66
2022/05/10 07:29:17;;;;;;;9.43;5.32;;;;;;;;;;5018832;28;20527;-65
2022/05/10 07:31:43;;;;;;;10.93;5.45;;;;;;;;;;5021579;28;20076;-66
2022/05/10 07:34:08;;;;;;;10.15;5.68;;;;;;;;;;5020904;28;20021;-66
2022/05/10 07:36:33;;;;;;;12.35;6.25;;;;;;;;;;5019677;28;20064;-66
2022/05/10 07:39:00;;;;;;;8.93;5.55;;;;;;;;;;5021794;28;20032;-66
2022/05/10 07:41:26;;;;;;;11.68;5.97;;;;;;;;;;4999086;28;20022;-66
2022/05/10 07:43:51;;;;;;;10.88;6.00;;;;;;;;;;5022573;28;20056;-66
2022/05/10 07:46:17;;;;;;;11.95;5.85;;;;;;;;;;5018203;28;20041;-66
2022/05/10 07:48:42;;;;;;;7.43;5.55;;;;;;;;;;5022857;28;20022;-66
2022/05/10 07:51:08;;;;;;;8.30;5.85;;;;;;;;;;5016686;28;20032;-65
2022/05/10 07:53:33;;;;;;;9.43;5.30;;;;;;;;;;5020913;28;20369;-65
2022/05/10 07:56:08;;;;;;;9.50;5.25;;;;;;;;;;5018274;28;20057;-65
2022/05/10 07:58:34;;;;;;;9.48;5.30;;;;;;;;;;5017821;28;20171;-66
2022/05/10 08:01:00;;;;;;;9.73;5.47;;;;;;;;;;5019405;28;20387;-67
2022/05/10 08:03:25;;;;;;;9.63;5.13;;;;;;;;;;5018810;28;20025;-65
2022/05/10 08:05:54;;;;;;;8.63;5.07;;;;;;;;;;5019405;28;20247;-68
2022/05/10 08:08:20;;;;;;;9.38;5.05;;;;;;;;;;5018898;28;20519;-66
2022/05/10 08:10:46;;;;;;;11.38;5.55;;;;;;;;;;5019755;28;20030;-65
2022/05/10 08:13:13;;;;;;;8.35;5.57;;;;;;;;;;5019503;28;20469;-66
2022/05/10 08:15:38;;;;;;;9.05;5.18;;;;;;;;;;5023052;28;20032;-66
2022/05/10 08:18:10;;;;;;;7.78;4.75;;;;;;;;;;5021170;28;20026;-66
2022/05/10 08:20:35;;;;;;;5.97;4.85;;;;;;;;;;5022510;28;20044;-65
2022/05/10 08:23:11;;;;;;;7.25;4.75;;;;;;;;;;5019662;28;20021;-67
2022/05/10 08:25:55;;;;;;;10.40;4.97;;;;;;;;;;5018170;28;20120;-66
2022/05/10 08:28:25;;;;;;;9.32;5.07;;;;;;;;;;5018238;28;20026;-66
2022/05/10 08:30:51;;;;;;;11.65;5.90;;;;;;;;;;5021075;28;20027;-68
2022/05/10 08:33:19;;;;;;;6.97;5.00;;;;;;;;;;5002281;28;20045;-65
2022/05/10 08:35:44;;;;;;;8.70;5.18;;;;;;;;;;5021503;28;20127;-66
2022/05/10 08:38:10;;;;;;;9.32;5.63;;;;;;;;;;5020135;28;20480;-67
2022/05/10 08:40:45;;;;;;;8.05;5.00;;;;;;;;;;5003936;28;20419;-65
2022/05/10 08:43:13;;;;;;;8.75;5.05;;;;;;;;;;5019342;28;20442;-65
2022/05/10 08:45:40;;;;;;;9.35;5.20;;;;;;;;;;5020619;28;20017;-68
2022/05/10 08:48:07;;;;;;;7.55;5.03;;;;;;;;;;5019309;28;20024;-65
2022/05/10 08:50:33;;;;;;;12.32;5.25;;;;;;;;;;5019601;28;20024;-66
2022/05/10 08:53:01;;;;;;;7.28;5.00;;;;;;;;;;5003967;28;20026;-66
2022/05/10 08:55:28;;;;;;;7.80;5.00;;;;;;;;;;5002589;28;20383;-66
2022/05/10 08:57:53;;;;;;;6.93;4.57;;;;;;;;;;5016070;28;20122;-66
2022/05/10 09:00:42;;;;;;;8.27;4.80;;;;;;;;;;5018226;28;20503;-66
2022/05/10 09:03:19;;;;;;;7.07;5.00;;;;;;;;;;5019720;28;20119;-67
2022/05/10 09:05:44;;;;;;;6.85;4.40;;;;;;;;;;5023984;28;20030;-66
2022/05/10 09:08:24;;;;;;;8.38;4.38;;;;;;;;;;5020914;28;20040;-71
2022/05/10 09:10:57;;;;;;;10.65;5.20;;;;;;;;;;5020192;28;20116;-65
2022/05/10 09:13:22;;;;;;;11.02;5.07;;;;;;;;;;5022048;28;20548;-71
2022/05/10 09:15:50;;;;;;;10.07;5.03;;;;;;;;;;5022738;28;20037;-66
2022/05/10 09:18:16;;;;;;;8.55;5.03;;;;;;;;;;5005167;28;20125;-66
2022/05/10 09:20:52;;;;;;;8.82;4.78;;;;;;;;;;5024097;28;20136;-67
2022/05/10 09:23:40;;;;;;;9.88;5.65;;;;;;;;;;5030391;28;20100;-67
2022/05/10 09:26:06;;;;;;;12.90;5.22;;;;;;;;;;5029263;28;20139;-67
2022/05/10 09:28:34;;;;;;;10.57;5.90;;;;;;;;;;5023819;28;20146;-67
2022/05/10 09:37:30;;;;;;;12.20;6.38;;;;;;;;;;5023873;28;20052;-67
2022/05/10 09:39:55;;;;;;;8.00;5.50;;;;;;;;;;5035540;28;20381;-66
2022/05/10 09:42:25;;;;;;;12.13;5.83;;;;;;;;;;5019090;28;20482;-67
2022/05/10 09:44:57;;;;;;;13.05;5.60;;;;;;;;;;5024662;28;20258;-67
2022/05/10 09:47:22;;;;;;;10.57;4.82;;;;;;;;;;5021355;28;20018;-67
2022/05/10 09:49:47;;;;;;;10.47;4.67;;;;;;;;;;5023150;28;20357;-66
2022/05/10 09:52:18;;;;;;;12.67;5.00;;;;;;;;;;5022728;28;20353;-67
2022/05/10 09:54:44;;;;;;;12.27;5.35;;;;;;;;;;5019805;28;20693;-66
2022/05/10 09:57:10;;;;;;;8.20;4.38;;;;;;;;;;5019378;28;20056;-67
2022/05/10 09:59:43;;;;;;;7.20;4.40;;;;;;;;;;5020137;28;20056;-67
2022/05/10 10:02:08;;;;;;;8.43;4.28;;;;;;;;;;5023085;28;20406;-68
2022/05/10 10:04:35;;;;;;;9.70;4.15;;;;;;;;;;5021306;28;20025;-66
2022/05/10 10:07:00;;;;;;;8.02;4.25;;;;;;;;;;5023182;28;20080;-66
2022/05/10 10:09:33;;;;;;;8.37;3.87;;;;;;;;;;5020475;28;20107;-67
2022/05/10 10:11:59;;;;;;;7.32;3.80;;;;;;;;;;5021126;28;20279;-67
2022/05/10 10:14:41;;;;;;;8.48;4.35;;;;;;;;;;5022760;28;20321;-67
2022/05/10 10:17:16;;;;;;;10.52;3.70;;;;;;;;;;5023643;28;20044;-66
2022/05/10 10:19:44;;;;;;;8.07;3.70;;;;;;;;;;5023352;28;20032;-67
2022/05/10 10:22:12;;;;;;;9.13;4.15;;;;;;;;;;5024491;28;20044;-66
2022/05/10 10:24:40;;;;;;;7.18;3.55;;;;;;;;;;5017118;28;20021;-67
2022/05/10 10:27:09;;;;;;;6.85;3.83;;;;;;;;;;5019358;28;20071;-67
2022/05/10 10:29:34;;;;;;;5.63;3.25;;;;;;;;;;5022521;28;20101;-67
2022/05/10 10:32:02;;;;;;;7.63;3.93;;;;;;;;;;5025302;28;20183;-68
2022/05/10 10:34:45;;;;;;;8.95;3.85;;;;;;;;;;5022994;28;20324;-67
2022/05/10 10:37:18;;;;;;;10.65;4.88;;;;;;;;;;5021141;28;20467;-67
2022/05/10 10:39:46;;;;;;;7.40;3.90;;;;;;;;;;5020648;28;20053;-67
2022/05/10 10:42:14;;;;;;;8.23;4.63;;;;;;;;;;5019902;28;20021;-67
2022/05/10 10:44:50;;;;;;;8.77;4.47;;;;;;;;;;5021941;28;20424;-66
2022/05/10 10:47:16;;;;;;;9.02;4.18;;;;;;;;;;5022665;28;20063;-66
2022/05/10 10:49:46;;;;;;;10.07;4.25;;;;;;;;;;5021215;28;20017;-66
2022/05/10 10:52:17;;;;;;;8.35;3.67;;;;;;;;;;5022808;28;20029;-67
2022/05/10 10:54:42;;;;;;;4.22;3.70;;;;;;;;;;5019522;28;20398;-67
2022/05/10 10:57:20;;;;;;;7.55;3.72;;;;;;;;;;5020956;28;20380;-67
2022/05/10 10:59:48;;;;;;;8.55;3.70;;;;;;;;;;5020346;28;20187;-66
2022/05/10 11:02:32;;;;;;;4.35;3.83;;;;;;;;;;5022244;28;20108;-67
2022/05/10 11:04:57;;;;;;;8.02;4.07;;;;;;;;;;5022338;28;20033;-67
2022/05/10 11:07:43;;;;;;;4.70;3.50;;;;;;;;;;5021481;28;20111;-68
2022/05/10 11:10:27;;;;;;;10.05;4.13;;;;;;;;;;5021263;28;20301;-66
2022/05/10 11:13:04;;;;;;;9.30;3.70;;;;;;;;;;5018698;28;20084;-66
2022/05/10 11:15:29;;;;;;;8.75;3.70;;;;;;;;;;5020904;28;20045;-67
2022/05/10 11:18:00;;;;;;;8.73;3.73;;;;;;;;;;5021314;28;20552;-67
2022/05/10 11:20:34;;;;;;;7.28;3.83;;;;;;;;;;5022177;28;20255;-67
2022/05/10 11:23:11;;;;;;;7.20;3.17;;;;;;;;;;5020832;28;20021;-67
2022/05/10 11:26:00;;;;;;;6.57;2.85;;;;;;;;;;5020081;28;20109;-66
2022/05/10 11:28:51;;;;;;;6.82;2.72;;;;;;;;;;5019298;28;20014;-66
2022/05/10 11:31:26;;;;;;;6.05;1.98;;;;;;;;;;5022640;28;20527;-68
2022/05/10 11:33:57;;;;;;;12.05;2.30;;;;;;;;;;5019743;28;20055;-67
2022/05/10 11:36:31;;;;;;;8.82;1.42;;;;;;;;;;5018934;28;20037;-67
2022/05/10 11:38:59;;;;;;;6.30;1.70;;;;;;;;;;5021710;28;20079;-68
2022/05/10 11:41:29;;;;;;;6.13;1.30;;;;;;;;;;5018189;28;20021;-68
2022/05/10 11:43:54;;;;;;;6.85;1.42;;;;;;;;;;5020349;28;20040;-66
2022/05/10 11:46:20;;;;;;;5.63;1.90;;;;;;;;;;5021318;28;20048;-68
2022/05/10 11:49:04;;;;;;;5.38;1.30;;;;;;;;;;5018318;28;20262;-66
2022/05/10 11:51:42;;;;;;;2.60;1.00;;;;;;;;;;5028028;28;20044;-67
2022/05/10 11:54:32;;;;;;;4.43;1.30;;;;;;;;;;5020857;28;20029;-66
2022/05/10 11:56:58;;;;;;;4.55;1.10;;;;;;;;;;5014350;28;20021;-66
2022/05/10 11:59:28;;;;;;;4.78;1.10;;;;;;;;;;5004490;28;20460;-66
2022/05/10 12:01:55;;;;;;;3.15;0.90;;;;;;;;;;5020712;28;20179;-66
2022/05/10 12:04:43;;;;;;;3.10;1.13;;;;;;;;;;5021691;28;20424;-67
2022/05/10 12:07:24;;;;;;;3.33;0.90;;;;;;;;;;5021261;28;20485;-67
2022/05/10 12:09:52;;;;;;;1.85;0.98;;;;;;;;;;5019809;28;20061;-67
2022/05/10 12:12:33;;;;;;;1.85;0.98;;;;;;;;;;5019724;28;20022;-66
2022/05/10 12:23:43;;;;;;;3.42;1.00;;;;;;;;;;5020610;28;20180;-66
2022/05/10 12:26:09;;;;;;;1.35;1.10;;;;;;;;;;5019320;28;20091;-65
2022/05/10 12:28:42;;;;;;;5.03;1.27;;;;;;;;;;5021704;28;20029;-66
2022/05/10 12:31:26;;;;;;;4.25;1.25;;;;;;;;;;5025636;28;20080;-66
2022/05/10 12:34:02;;;;;;;2.47;1.08;;;;;;;;;;5019112;28;20692;-66
2022/05/10 12:36:38;;;;;;;4.32;1.27;;;;;;;;;;5024557;28;20437;-66
2022/05/10 12:39:22;;;;;;;5.05;1.38;;;;;;;;;;5024052;28;20092;-68
2022/05/10 12:41:52;;;;;;;5.45;1.50;;;;;;;;;;5021733;28;20412;-68
2022/05/10 12:44:24;;;;;;;7.13;1.95;;;;;;;;;;5025075;28;20025;-67
2022/05/10 12:46:59;;;;;;;2.83;1.10;;;;;;;;;;5022860;28;20525;-68
2022/05/10 12:49:47;;;;;;;6.00;1.73;;;;;;;;;;5025248;28;20017;-68
2022/05/10 12:52:24;;;;;;;8.93;1.63;;;;;;;;;;5015185;28;20044;-67
2022/05/10 12:54:53;;;;;;;4.60;1.60;;;;;;;;;;5021442;28;20033;-68
2022/05/10 12:57:28;;;;;;;7.28;1.65;;;;;;;;;;5023098;28;20028;-69
2022/05/10 13:00:00;;;;;;;6.65;2.00;;;;;;;;;;5024024;28;20282;-67
2022/05/10 13:02:27;;;;;;;9.32;2.00;;;;;;;;;;5025467;28;20438;-67
2022/05/10 13:04:55;;;;;;;7.57;2.10;;;;;;;;;;5024332;28;20022;-68
2022/05/10 13:07:39;;;;;;;9.00;2.20;;;;;;;;;;5023453;28;20014;-67
2022/05/10 13:10:14;;;;;;;6.03;1.95;;;;;;;;;;5021365;28;20099;-68
2022/05/10 13:12:46;;;;;;;7.57;2.63;;;;;;;;;;5021706;28;20136;-67
2022/05/10 13:15:15;;;;;;;6.03;2.50;;;;;;;;;;5020827;28;20392;-67
2022/05/10 13:17:45;;;;;;;7.00;2.90;;;;;;;;;;5027853;28;20040;-67
2022/05/10 13:20:12;;;;;;;5.28;2.83;;;;;;;;;;5024949;28;20025;-67
2022/05/10 13:22:38;;;;;;;5.18;2.47;;;;;;;;;;5023758;28;20021;-68
2022/05/10 13:25:06;;;;;;;6.35;2.20;;;;;;;;;;5020949;28;20022;-65
2022/05/10 13:27:40;;;;;;;5.50;2.40;;;;;;;;;;5022701;28;20025;-67
2022/05/10 13:30:16;;;;;;;7.30;2.58;;;;;;;;;;5024542;28;20025;-66
2022/05/10 13:32:45;;;;;;;3.92;2.40;;;;;;;;;;5021146;28;20350;-66
2022/05/10 13:35:11;;;;;;;4.60;2.65;;;;;;;;;;5024752;28;20199;-67
2022/05/10 13:37:38;;;;;;;6.20;2.88;;;;;;;;;;5024271;28;20049;-66
2022/05/10 13:40:09;;;;;;;6.47;2.50;;;;;;;;;;5021672;28;20083;-66
2022/05/10 13:42:38;;;;;;;5.88;3.25;;;;;;;;;;5020239;28;20468;-66
2022/05/10 13:45:04;;;;;;;5.38;3.05;;;;;;;;;;5022161;28;20348;-66
2022/05/10 13:47:31;;;;;;;5.85;3.58;;;;;;;;;;5024022;28;20376;-65
2022/05/10 13:49:57;;;;;;;6.13;3.70;;;;;;;;;;5022824;28;20037;-65
2022/05/10 13:52:25;;;;;;;6.38;3.40;;;;;;;;;;5024499;28;20464;-66
2022/05/10 13:54:55;;;;;;;5.25;3.38;;;;;;;;;;5020313;28;20092;-66
2022/05/10 13:57:25;;;;;;;9.38;3.85;;;;;;;;;;5023001;28;20069;-65
2022/05/10 13:59:51;;;;;;;7.82;3.88;;;;;;;;;;5019316;28;20041;-66
2022/05/10 14:02:16;;;;;;;9.10;3.83;;;;;;;;;;5025887;28;20087;-67
2022/05/10 14:04:45;;;;;;;7.60;3.90;;;;;;;;;;5022133;28;20037;-66
2022/05/10 14:07:12;;;;;;;8.40;4.30;;;;;;;;;;5023171;28;20065;-67
2022/05/10 14:09:40;;;;;;;8.80;4.70;;;;;;;;;;5021660;28;20037;-66
2022/05/10 14:12:11;;;;;;;10.10;4.05;;;;;;;;;;5021216;28;20021;-68
2022/05/10 14:14:37;;;;;;;8.50;3.83;;;;;;;;;;5023589;28;20105;-65
2022/05/10 14:17:04;;;;;;;8.05;4.20;;;;;;;;;;5020765;28;20144;-65
2022/05/10 14:19:45;;;;;;;8.80;4.05;;;;;;;;;;5025316;28;20023;-66
2022/05/10 14:22:13;;;;;;;10.30;4.03;;;;;;;;;;5022002;28;20013;-66
2022/05/10 14:24:40;;;;;;;6.35;4.07;;;;;;;;;;5021293;28;20013;-65
2022/05/10 14:27:10;;;;;;;6.50;3.78;;;;;;;;;;5003181;28;20129;-66
2022/05/10 14:29:38;;;;;;;7.93;4.18;;;;;;;;;;5023463;28;20052;-66
2022/05/10 14:32:10;;;;;;;6.20;4.00;;;;;;;;;;5021008;28;20041;-65
2022/05/10 14:34:43;;;;;;;7.43;4.25;;;;;;;;;;5021011;28;20014;-67
2022/05/10 14:37:08;;;;;;;9.73;4.22;;;;;;;;;;5020135;28;20469;-67
2022/05/10 14:39:37;;;;;;;7.85;4.28;;;;;;;;;;5021255;28;20026;-66
2022/05/10 14:42:03;;;;;;;8.35;4.85;;;;;;;;;;5017306;28;20475;-67
2022/05/10 14:44:37;;;;;;;9.05;4.80;;;;;;;;;;5023242;28;20105;-66
2022/05/10 14:47:14;;;;;;;8.73;5.28;;;;;;;;;;5018907;28;20400;-66
2022/05/10 14:49:43;;;;;;;9.65;5.13;;;;;;;;;;5023374;28;20017;-65
2022/05/10 14:52:30;;;;;;;12.15;5.72;;;;;;;;;;5004213;28;20028;-66
2022/05/10 14:54:58;;;;;;;11.55;5.65;;;;;;;;;;5017649;28;20338;-66
2022/05/10 14:57:29;;;;;;;11.27;5.43;;;;;;;;;;5015669;28;20320;-66
2022/05/10 14:59:57;;;;;;;9.63;5.75;;;;;;;;;;5019976;28;20029;-66
2022/05/10 15:02:25;;;;;;;8.35;5.43;;;;;;;;;;5019602;28;20018;-66
2022/05/10 15:04:51;;;;;;;8.55;4.50;;;;;;;;;;5021861;28;20017;-65
2022/05/10 15:07:16;;;;;;;8.60;5.07;;;;;;;;;;5020182;28;20038;-67